createdAt,value
2022-11-23T00:02:47.220Z,9.27
2022-11-23T00:07:49.296Z,12.70
2022-11-23T00:12:51.281Z,13.05
2022-11-23T00:17:53.100Z,10.30
2022-11-23T00:22:54.991Z,11.93
2022-11-23T00:27:57.033Z,13.55
2022-11-23T00:32:59.057Z,10.13
2022-11-23T00:38:01.004Z,6.93
2022-11-23T00:43:02.865Z,10.93
2022-11-23T00:48:04.957Z,10.15
2022-11-23T00:53:06.780Z,10.30
2022-11-23T00:58:08.844Z,6.57
2022-11-23T01:03:10.716Z,6.82
2022-11-23T01:08:12.656Z,7.53
2022-11-23T01:13:14.351Z,10.20
2022-11-23T01:18:16.192Z,9.20
2022-11-23T01:23:18.221Z,6.63
2022-11-23T01:28:20.006Z,9.75
2022-11-23T01:33:24.956Z,8.13
2022-11-23T01:38:26.768Z,11.82
2022-11-23T01:43:28.565Z,8.95
2022-11-23T01:48:40.911Z,7.95
2022-11-23T01:53:43.628Z,9.82
2022-11-23T01:58:49.930Z,5.03
2022-11-23T02:03:55.169Z,11.10
2022-11-23T02:08:57.814Z,7.50
2022-11-23T02:14:00.632Z,8.50
2022-11-23T02:19:12.930Z,10.25
2022-11-23T02:24:25.554Z,8.63
2022-11-23T02:29:29.640Z,9.35
2022-11-23T02:34:35.764Z,8.95
2022-11-23T02:39:52.319Z,6.95
2022-11-23T02:45:04.469Z,6.63
2022-11-23T02:50:06.659Z,6.82
2022-11-23T02:55:09.471Z,7.50
2022-11-23T03:00:12.219Z,6.75
2022-11-23T03:05:14.209Z,9.18
2022-11-23T03:10:16.232Z,6.88
2022-11-23T03:15:19.803Z,6.95
2022-11-23T03:20:22.685Z,4.95
2022-11-23T03:25:26.249Z,8.35
2022-11-23T03:30:31.836Z,8.15
2022-11-23T03:35:34.412Z,9.68
2022-11-23T03:41:05.437Z,6.50
2022-11-23T03:46:20.657Z,8.45
2022-11-23T03:51:23.352Z,5.40
2022-11-23T03:56:25.431Z,5.15
2022-11-23T04:01:27.377Z,8.45
2022-11-23T04:06:35.381Z,5.60
2022-11-23T04:11:49.216Z,5.55
2022-11-23T04:16:50.989Z,4.72
2022-11-23T04:21:52.882Z,7.47
2022-11-23T04:26:56.077Z,6.53
2022-11-23T04:31:59.209Z,10.18
2022-11-23T04:37:01.166Z,8.82
2022-11-23T04:42:12.212Z,4.13
2022-11-23T04:47:14.446Z,4.88
2022-11-23T04:52:16.739Z,6.55
2022-11-23T04:57:23.094Z,4.93
2022-11-23T05:02:27.064Z,8.57
2022-11-23T05:07:38.944Z,13.63
2022-11-23T05:12:41.015Z,12.13
2022-11-23T05:17:44.208Z,11.32
2022-11-23T05:22:54.396Z,10.40
2022-11-23T05:28:03.718Z,12.30
2022-11-23T05:33:14.355Z,11.18
2022-11-23T05:38:17.883Z,8.82
2022-11-23T05:43:19.804Z,12.07
2022-11-23T05:48:23.037Z,11.05
2022-11-23T05:53:32.084Z,11.07
2022-11-23T05:59:00.278Z,7.70
2022-11-23T06:04:02.493Z,18.17
2022-11-23T06:09:11.202Z,13.00
2022-11-23T06:14:15.493Z,18.83
2022-11-23T06:19:20.800Z,13.20
2022-11-23T06:24:24.622Z,17.75
2022-11-23T06:29:47.392Z,15.90
2022-11-23T06:34:49.408Z,14.35
2022-11-23T06:39:51.316Z,12.45
2022-11-23T06:44:53.559Z,14.70
2022-11-23T06:49:57.621Z,11.90
2022-11-23T06:55:03.449Z,13.68
2022-11-23T07:00:06.397Z,14.98
2022-11-23T07:05:12.454Z,12.97
2022-11-23T07:10:15.231Z,14.68
2022-11-23T07:15:23.341Z,8.65
2022-11-23T07:20:27.185Z,10.50
2022-11-23T07:25:31.867Z,7.97
2022-11-23T07:30:36.564Z,12.10
2022-11-23T07:35:41.112Z,11.80
2022-11-23T07:40:44.360Z,10.98
2022-11-23T07:46:00.349Z,9.32
2022-11-23T07:51:02.231Z,11.85
2022-11-23T07:56:04.259Z,13.32
2022-11-23T08:01:09.122Z,12.13
2022-11-23T08:06:12.147Z,10.80
2022-11-23T08:11:18.825Z,9.15
2022-11-23T08:16:20.655Z,9.35
2022-11-23T08:21:22.488Z,8.25
2022-11-23T08:26:24.343Z,8.80
2022-11-23T08:31:26.380Z,14.45
2022-11-23T08:36:28.177Z,7.35
2022-11-23T08:41:29.942Z,16.05
2022-11-23T08:46:31.831Z,20.77
2022-11-23T08:51:34.304Z,15.25
2022-11-23T08:56:36.175Z,8.27
2022-11-23T09:01:38.161Z,11.57
2022-11-23T09:06:40.140Z,9.02
2022-11-23T09:11:41.987Z,6.05
2022-11-23T09:16:43.734Z,12.13
2022-11-23T09:21:45.858Z,7.32
2022-11-23T09:26:47.683Z,8.35
2022-11-23T09:31:49.434Z,8.40
2022-11-23T09:36:51.243Z,8.70
2022-11-23T09:42:40.826Z,7.65
2022-11-23T09:48:20.209Z,11.82
2022-11-23T09:53:44.883Z,10.73
2022-11-23T09:58:47.287Z,10.23
2022-11-23T10:03:49.727Z,8.13
2022-11-23T10:09:10.709Z,8.45
2022-11-23T10:14:37.265Z,17.75
2022-11-23T10:20:25.772Z,15.43
2022-11-23T10:25:39.233Z,12.18
2022-11-23T10:30:42.818Z,15.35
2022-11-23T10:35:44.705Z,12.98
2022-11-23T10:41:10.974Z,17.33
2022-11-23T10:46:33.873Z,16.90
2022-11-23T10:51:36.469Z,15.57
2022-11-23T10:56:50.058Z,14.75
2022-11-23T11:02:10.633Z,15.90
2022-11-23T11:07:29.444Z,21.90
2022-11-23T11:12:35.031Z,21.65
2022-11-23T11:17:38.122Z,15.40
2022-11-23T11:22:46.218Z,23.17
2022-11-23T11:27:53.910Z,20.17
2022-11-23T11:33:18.903Z,24.83
2022-11-23T11:38:31.645Z,21.08
2022-11-23T11:43:41.519Z,24.40
2022-11-23T11:48:59.894Z,19.98
2022-11-23T11:54:34.543Z,19.83
2022-11-23T11:59:45.737Z,16.42
2022-11-23T12:05:02.791Z,19.10
2022-11-23T12:10:28.121Z,18.77
2022-11-23T12:15:53.379Z,19.60
2022-11-23T12:21:26.502Z,20.92
2022-11-23T12:26:58.954Z,20.83
2022-11-23T12:32:45.374Z,20.63
2022-11-23T12:38:26.183Z,21.67
2022-11-23T12:43:37.142Z,17.67
2022-11-23T12:49:12.082Z,22.50
2022-11-23T12:54:34.861Z,21.20
2022-11-23T13:00:01.024Z,27.80
2022-11-23T13:05:28.126Z,29.88
2022-11-23T13:10:38.643Z,23.13
2022-11-23T13:16:08.942Z,26.88
2022-11-23T13:21:25.696Z,19.58
2022-11-23T13:26:31.585Z,22.17
2022-11-23T13:31:36.104Z,25.05
2022-11-23T13:37:11.108Z,24.42
2022-11-23T13:42:06.068Z,31.27
2022-11-23T13:47:20.300Z,26.05
2022-11-23T13:52:25.193Z,26.27
2022-11-23T13:57:27.286Z,27.48
2022-11-23T14:02:31.289Z,26.95
2022-11-23T14:07:47.181Z,22.55
2022-11-23T14:12:56.962Z,28.05
2022-11-23T14:18:30.287Z,22.13
2022-11-23T14:23:53.359Z,26.65
2022-11-23T14:29:13.186Z,26.58
2022-11-23T14:34:35.397Z,25.83
2022-11-23T14:39:59.834Z,28.08
2022-11-23T14:45:05.101Z,35.08
2022-11-23T14:50:29.920Z,31.23
2022-11-23T14:55:33.040Z,25.25
2022-11-23T15:00:41.656Z,22.83
2022-11-23T15:05:52.777Z,20.90
2022-11-23T15:11:13.193Z,19.48
2022-11-23T15:16:17.798Z,21.40
2022-11-23T15:21:27.795Z,23.88
2022-11-23T15:26:49.094Z,24.35
2022-11-23T15:32:14.227Z,28.98
2022-11-23T15:37:14.920Z,21.30
2022-11-23T15:42:22.789Z,21.00
2022-11-23T15:47:31.138Z,24.70
2022-11-23T15:52:37.845Z,25.92
2022-11-23T15:57:40.838Z,22.65
2022-11-23T16:02:43.405Z,30.08
2022-11-23T16:08:02.658Z,23.48
2022-11-23T16:13:06.358Z,26.20
2022-11-23T16:18:17.474Z,20.67
2022-11-23T16:23:26.034Z,21.30
2022-11-23T16:28:36.705Z,25.77
2022-11-23T16:33:38.825Z,24.67
2022-11-23T16:38:40.618Z,17.23
2022-11-23T16:43:42.469Z,21.10
2022-11-23T16:48:44.419Z,21.95
2022-11-23T16:54:12.580Z,24.30
2022-11-23T16:59:20.483Z,17.20
2022-11-23T17:04:22.397Z,20.98
2022-11-23T17:09:24.224Z,25.83
2022-11-23T17:14:29.592Z,19.60
2022-11-23T17:19:32.423Z,28.40
2022-11-23T17:24:34.900Z,24.00
2022-11-23T17:29:41.642Z,30.48
2022-11-23T17:34:44.278Z,25.92
2022-11-23T17:39:47.615Z,24.50
2022-11-23T17:44:49.609Z,29.45
2022-11-23T17:49:52.346Z,25.27
2022-11-23T17:54:54.498Z,20.98
2022-11-23T18:00:00.488Z,29.08
2022-11-23T18:05:24.079Z,27.07
2022-11-23T18:10:25.964Z,21.98
2022-11-23T18:15:28.318Z,17.67
2022-11-23T18:20:30.003Z,22.02
2022-11-23T18:25:32.275Z,17.70
2022-11-23T18:30:34.043Z,20.17
2022-11-23T18:35:35.797Z,22.63
2022-11-23T18:40:37.611Z,16.95
2022-11-23T18:45:39.523Z,22.20
2022-11-23T18:50:41.567Z,21.17
2022-11-23T18:55:43.365Z,17.42
2022-11-23T19:00:45.431Z,18.70
2022-11-23T19:05:47.245Z,19.88
2022-11-23T19:10:50.054Z,22.73
2022-11-23T19:15:51.828Z,17.52
2022-11-23T19:20:54.029Z,18.55
2022-11-23T19:26:01.468Z,19.85
2022-11-23T19:31:21.110Z,19.50
2022-11-23T19:36:25.323Z,20.65
2022-11-23T19:41:30.462Z,22.92
2022-11-23T19:46:33.127Z,21.23
2022-11-23T19:51:35.150Z,22.17
2022-11-23T19:56:40.053Z,23.40
2022-11-23T20:01:41.899Z,25.95
2022-11-23T20:06:43.963Z,40.28
2022-11-23T20:11:50.342Z,26.98
2022-11-23T20:16:53.320Z,31.97
2022-11-23T20:21:55.534Z,21.10
2022-11-23T20:26:57.402Z,24.88
2022-11-23T20:31:59.329Z,23.45
2022-11-23T20:37:01.486Z,27.38
2022-11-23T20:42:03.483Z,21.65
2022-11-23T20:47:05.430Z,20.42
2022-11-23T20:52:07.231Z,23.05
2022-11-23T20:57:09.290Z,19.83
2022-11-23T21:02:11.187Z,24.75
2022-11-23T21:07:13.072Z,16.48
2022-11-23T21:12:50.246Z,15.45
2022-11-23T21:17:52.373Z,14.57
2022-11-23T21:22:54.126Z,16.10
2022-11-23T21:27:55.993Z,13.38
2022-11-23T21:32:57.778Z,11.57
2022-11-23T21:38:00.570Z,10.20
2022-11-23T21:43:02.445Z,12.57
2022-11-23T21:48:04.622Z,13.05
2022-11-23T21:53:06.369Z,6.10
2022-11-23T21:58:08.130Z,7.93
2022-11-23T22:03:11.537Z,6.63
2022-11-23T22:08:28.915Z,4.47
2022-11-23T22:13:36.622Z,4.15
2022-11-23T22:23:41.383Z,3.78
2022-11-23T22:28:47.225Z,4.82
2022-11-23T22:33:49.797Z,5.50
2022-11-23T22:39:01.032Z,3.05
2022-11-23T22:44:06.081Z,5.00
2022-11-23T22:49:08.043Z,3.65
2022-11-23T22:54:10.153Z,5.32
2022-11-23T22:59:12.306Z,4.25
2022-11-23T23:04:14.132Z,5.38
2022-11-23T23:09:16.079Z,3.45
2022-11-23T23:14:18.356Z,5.57
2022-11-23T23:19:20.569Z,6.15
2022-11-23T23:24:22.259Z,4.10
2022-11-23T23:29:24.499Z,3.47
2022-11-23T23:34:26.281Z,5.07
2022-11-23T23:39:28.045Z,7.93
2022-11-23T23:44:29.848Z,7.63
2022-11-23T23:49:31.768Z,6.63
2022-11-23T23:54:34.070Z,6.20
2022-11-23T23:59:36.340Z,8.02
